createdAt,value
2018-12-31T00:02:23.744Z,9.33
2018-12-31T00:04:51.973Z,9.40
2018-12-31T00:07:19.962Z,9.25
2018-12-31T00:09:48.252Z,8.75
2018-12-31T00:12:16.215Z,9.73
2018-12-31T00:14:44.177Z,9.23
2018-12-31T00:17:12.467Z,9.48
2018-12-31T00:19:40.446Z,9.68
2018-12-31T00:22:08.710Z,8.88
2018-12-31T00:24:38.369Z,9.30
2018-12-31T00:27:06.318Z,10.08
2018-12-31T00:29:34.293Z,10.00
2018-12-31T00:32:02.216Z,9.98
2018-12-31T00:34:30.484Z,10.13
2018-12-31T00:36:59.091Z,10.38
2018-12-31T00:39:27.358Z,10.43
2018-12-31T00:41:55.643Z,10.18
2018-12-31T00:44:23.631Z,11.18
2018-12-31T00:46:51.590Z,11.40
2018-12-31T00:49:20.756Z,10.80
2018-12-31T00:51:48.737Z,10.20
2018-12-31T00:54:16.689Z,10.60
2018-12-31T00:56:44.678Z,10.15
2018-12-31T00:59:12.622Z,10.65
2018-12-31T01:01:40.936Z,10.45
2018-12-31T01:04:08.922Z,10.10
2018-12-31T01:06:36.896Z,9.80
2018-12-31T01:09:06.511Z,9.35
2018-12-31T01:11:34.825Z,9.83
2018-12-31T01:14:02.802Z,9.63
2018-12-31T01:16:30.791Z,9.90
2018-12-31T01:18:59.081Z,9.78
2018-12-31T01:21:27.355Z,9.80
2018-12-31T01:23:55.609Z,10.10
2018-12-31T01:26:23.911Z,9.65
2018-12-31T01:28:51.950Z,10.15
2018-12-31T01:31:19.923Z,9.70
2018-12-31T01:33:47.929Z,10.00
2018-12-31T01:36:16.304Z,9.73
2018-12-31T01:38:46.079Z,10.85
2018-12-31T01:41:14.382Z,10.10
2018-12-31T01:43:42.667Z,10.43
2018-12-31T01:46:11.051Z,88.60
2018-12-31T01:48:39.324Z,105.72
2018-12-31T01:51:11.222Z,35.08
2018-12-31T01:53:36.978Z,26.20
2018-12-31T01:56:04.979Z,14.20
2018-12-31T01:58:33.872Z,11.08
2018-12-31T02:01:01.815Z,10.40
2018-12-31T02:03:30.086Z,10.30
2018-12-31T02:05:58.388Z,9.70
2018-12-31T02:08:26.967Z,10.35
2018-12-31T02:10:54.926Z,10.50
2018-12-31T02:13:25.071Z,9.90
2018-12-31T02:15:53.074Z,10.90
2018-12-31T02:18:21.037Z,9.98
2018-12-31T02:20:49.281Z,10.90
2018-12-31T02:23:17.283Z,10.55
2018-12-31T02:25:45.602Z,10.90
2018-12-31T02:28:13.594Z,10.43
2018-12-31T02:30:41.926Z,10.30
2018-12-31T02:33:10.208Z,11.22
2018-12-31T02:35:39.145Z,10.73
2018-12-31T02:38:07.131Z,11.00
2018-12-31T02:40:35.389Z,12.10
2018-12-31T02:43:03.666Z,11.63
2018-12-31T02:45:31.938Z,12.98
2018-12-31T02:48:00.237Z,11.63
2018-12-31T02:50:28.227Z,10.82
2018-12-31T02:52:56.507Z,11.88
2018-12-31T02:55:24.727Z,12.70
2018-12-31T02:57:53.025Z,12.65
2018-12-31T03:00:21.892Z,13.50
2018-12-31T03:02:50.961Z,14.65
2018-12-31T03:05:18.959Z,12.20
2018-12-31T03:07:48.343Z,17.05
2018-12-31T03:10:16.292Z,14.23
2018-12-31T03:12:44.526Z,15.08
2018-12-31T03:15:13.022Z,14.15
2018-12-31T03:17:41.267Z,13.70
2018-12-31T03:20:09.240Z,14.25
2018-12-31T03:22:37.837Z,14.30
2018-12-31T03:25:06.105Z,16.77
2018-12-31T03:27:34.381Z,15.15
2018-12-31T03:30:02.671Z,17.05
2018-12-31T03:32:30.990Z,13.40
2018-12-31T03:35:00.783Z,16.00
2018-12-31T03:37:29.122Z,17.87
2018-12-31T03:39:57.142Z,14.55
2018-12-31T03:42:25.483Z,14.10
2018-12-31T03:44:54.072Z,13.53
2018-12-31T03:47:22.314Z,14.35
2018-12-31T03:49:50.634Z,14.60
2018-12-31T03:52:18.594Z,14.07
2018-12-31T03:54:46.846Z,15.70
2018-12-31T03:57:15.459Z,15.08
2018-12-31T03:59:43.835Z,15.13
2018-12-31T04:02:12.106Z,14.87
2018-12-31T04:04:40.037Z,15.08
2018-12-31T04:07:08.377Z,16.10
2018-12-31T04:09:36.630Z,16.02
2018-12-31T04:12:04.894Z,15.60
2018-12-31T04:14:33.176Z,16.90
2018-12-31T04:17:01.478Z,16.15
2018-12-31T04:19:29.748Z,15.72
2018-12-31T04:21:59.109Z,15.72
2018-12-31T04:24:27.427Z,17.02
2018-12-31T04:26:55.698Z,20.12
2018-12-31T04:29:23.650Z,17.70
2018-12-31T04:31:51.955Z,16.75
2018-12-31T04:34:20.224Z,17.00
2018-12-31T04:36:48.234Z,16.90
2018-12-31T04:39:16.570Z,16.10
2018-12-31T04:41:44.831Z,18.15
2018-12-31T04:44:13.406Z,16.70
2018-12-31T04:46:41.665Z,19.40
2018-12-31T04:49:09.993Z,17.70
2018-12-31T04:51:38.252Z,17.82
2018-12-31T04:54:06.226Z,17.35
2018-12-31T04:56:34.828Z,18.92
2018-12-31T04:59:02.776Z,17.37
2018-12-31T05:01:30.745Z,21.27
2018-12-31T05:03:59.328Z,21.97
2018-12-31T05:06:27.679Z,19.62
2018-12-31T05:08:56.464Z,19.10
2018-12-31T05:11:24.419Z,17.70
2018-12-31T05:13:52.386Z,18.27
2018-12-31T05:16:21.303Z,18.92
2018-12-31T05:18:49.714Z,18.07
2018-12-31T05:21:17.720Z,17.77
2018-12-31T05:23:45.707Z,19.12
2018-12-31T05:26:13.671Z,17.42
2018-12-31T05:28:41.633Z,16.85
2018-12-31T05:31:10.284Z,17.30
2018-12-31T05:33:38.239Z,16.60
2018-12-31T05:36:06.531Z,17.10
2018-12-31T05:38:35.115Z,16.20
2018-12-31T05:41:03.699Z,17.10
2018-12-31T05:43:31.975Z,17.30
2018-12-31T05:46:00.304Z,18.40
2018-12-31T05:48:28.351Z,17.82
2018-12-31T05:50:56.588Z,17.90
2018-12-31T05:53:24.598Z,18.60
2018-12-31T05:55:52.846Z,18.40
2018-12-31T05:58:21.238Z,18.70
2018-12-31T06:00:49.187Z,18.73
2018-12-31T06:03:17.783Z,17.77
2018-12-31T06:05:45.758Z,18.47
2018-12-31T06:08:14.047Z,19.00
2018-12-31T06:10:43.228Z,19.80
2018-12-31T06:13:11.201Z,19.20
2018-12-31T06:15:39.461Z,19.10
2018-12-31T06:18:08.060Z,19.48
2018-12-31T06:20:36.642Z,18.67
2018-12-31T06:23:04.893Z,18.60
2018-12-31T06:25:32.855Z,18.10
2018-12-31T06:28:01.523Z,18.07
2018-12-31T06:30:30.145Z,17.95
2018-12-31T06:32:58.395Z,17.37
2018-12-31T06:35:26.723Z,17.00
2018-12-31T06:37:54.986Z,17.67
2018-12-31T06:40:23.376Z,17.95
2018-12-31T06:42:51.614Z,17.50
2018-12-31T06:45:20.213Z,19.48
2018-12-31T06:47:50.000Z,18.85
2018-12-31T06:50:19.111Z,18.15
2018-12-31T06:52:47.071Z,18.05
2018-12-31T06:55:15.021Z,18.57
2018-12-31T06:57:43.662Z,18.27
2018-12-31T07:00:11.626Z,17.57
2018-12-31T07:02:40.318Z,18.45
2018-12-31T07:05:08.303Z,18.80
2018-12-31T07:07:36.562Z,19.27
2018-12-31T07:10:04.550Z,19.62
2018-12-31T07:12:32.808Z,19.10
2018-12-31T07:15:02.299Z,19.70
2018-12-31T07:17:30.590Z,19.40
2018-12-31T07:19:58.623Z,19.40
2018-12-31T07:22:26.602Z,19.00
2018-12-31T07:24:54.895Z,19.57
2018-12-31T07:27:22.846Z,19.07
2018-12-31T07:29:51.466Z,18.10
2018-12-31T07:32:20.048Z,18.45
2018-12-31T07:34:48.332Z,19.25
2018-12-31T07:37:16.602Z,18.57
2018-12-31T07:39:45.195Z,17.50
2018-12-31T07:42:13.468Z,17.40
2018-12-31T07:44:41.462Z,18.45
2018-12-31T07:47:09.901Z,17.12
2018-12-31T07:49:38.281Z,17.40
2018-12-31T07:52:05.855Z,17.87
2018-12-31T07:54:35.857Z,17.98
2018-12-31T07:57:03.554Z,18.25
2018-12-31T07:59:31.563Z,17.00
2018-12-31T08:01:59.490Z,16.97
2018-12-31T08:04:27.489Z,16.75
2018-12-31T08:06:55.715Z,16.50
2018-12-31T08:09:24.102Z,16.85
2018-12-31T08:11:52.031Z,17.00
2018-12-31T08:14:20.038Z,17.42
2018-12-31T08:16:49.422Z,16.90
2018-12-31T08:19:17.412Z,17.90
2018-12-31T08:21:45.360Z,18.30
2018-12-31T08:24:13.407Z,17.73
2018-12-31T08:26:41.389Z,17.77
2018-12-31T08:29:09.439Z,19.17
2018-12-31T08:31:37.738Z,18.00
2018-12-31T08:34:06.058Z,19.60
2018-12-31T08:36:34.110Z,18.60
2018-12-31T08:39:02.477Z,18.65
2018-12-31T08:41:30.458Z,19.25
2018-12-31T08:43:58.467Z,18.27
2018-12-31T08:46:26.425Z,20.23
2018-12-31T08:48:56.002Z,20.00
2018-12-31T08:51:24.290Z,22.00
2018-12-31T08:53:52.572Z,24.55
2018-12-31T08:56:20.558Z,20.40
2018-12-31T08:58:48.573Z,20.45
2018-12-31T09:01:16.994Z,22.00
2018-12-31T09:03:44.982Z,20.97
2018-12-31T09:06:12.938Z,21.55
2018-12-31T09:08:41.288Z,21.07
2018-12-31T09:11:09.996Z,20.75
2018-12-31T09:13:38.022Z,22.60
2018-12-31T09:16:06.342Z,21.30
2018-12-31T09:18:35.752Z,20.50
2018-12-31T09:21:04.335Z,23.70
2018-12-31T09:23:32.615Z,22.77
2018-12-31T09:26:00.571Z,22.70
2018-12-31T09:28:28.593Z,22.00
2018-12-31T09:30:58.022Z,24.55
2018-12-31T09:33:26.108Z,24.23
2018-12-31T09:35:54.507Z,23.87
2018-12-31T09:38:22.779Z,23.40
2018-12-31T09:40:51.152Z,23.90
2018-12-31T09:43:19.186Z,24.60
2018-12-31T09:45:47.526Z,24.77
2018-12-31T09:48:15.793Z,24.87
2018-12-31T09:50:43.863Z,23.47
2018-12-31T09:53:12.679Z,23.60
2018-12-31T09:55:40.872Z,23.95
2018-12-31T09:58:09.202Z,24.32
2018-12-31T10:00:37.495Z,25.40
2018-12-31T10:03:05.754Z,26.40
2018-12-31T10:05:34.002Z,25.52
2018-12-31T10:08:01.979Z,25.32
2018-12-31T10:10:29.975Z,24.60
2018-12-31T10:12:57.958Z,24.82
2018-12-31T10:15:25.956Z,26.35
2018-12-31T10:17:53.938Z,25.95
2018-12-31T10:20:22.019Z,24.75
2018-12-31T10:22:49.978Z,25.52
2018-12-31T10:25:18.000Z,24.00
2018-12-31T10:27:45.995Z,24.70
2018-12-31T10:30:13.987Z,23.50
2018-12-31T10:32:42.371Z,24.20
2018-12-31T10:35:10.388Z,23.80
2018-12-31T10:37:38.410Z,25.70
2018-12-31T10:40:07.431Z,25.90
2018-12-31T10:42:35.702Z,24.72
2018-12-31T10:45:03.703Z,24.87
2018-12-31T10:47:32.089Z,24.70
2018-12-31T10:50:00.355Z,22.90
2018-12-31T10:52:28.638Z,21.53
2018-12-31T10:54:56.619Z,18.87
2018-12-31T10:57:24.980Z,20.12
2018-12-31T10:59:53.220Z,18.10
2018-12-31T11:02:23.176Z,18.40
2018-12-31T11:04:50.855Z,17.60
2018-12-31T11:07:18.822Z,18.00
2018-12-31T11:09:46.786Z,16.50
2018-12-31T11:12:15.061Z,15.53
2018-12-31T11:14:43.603Z,16.17
2018-12-31T11:17:11.578Z,15.53
2018-12-31T11:19:39.882Z,15.00
2018-12-31T11:22:07.927Z,15.20
2018-12-31T11:24:35.915Z,14.43
2018-12-31T11:27:03.906Z,14.37
2018-12-31T11:29:31.898Z,14.15
2018-12-31T11:32:00.232Z,15.20
2018-12-31T11:34:28.517Z,15.32
2018-12-31T11:36:56.559Z,15.13
2018-12-31T11:39:25.177Z,15.10
2018-12-31T11:41:53.145Z,15.80
2018-12-31T11:44:21.123Z,15.35
2018-12-31T11:46:49.163Z,15.65
2018-12-31T11:49:17.094Z,15.25
2018-12-31T11:51:45.326Z,15.23
2018-12-31T11:54:13.315Z,15.30
2018-12-31T11:56:41.578Z,14.87
2018-12-31T11:59:09.573Z,14.50
2018-12-31T12:01:37.922Z,14.38
2018-12-31T12:04:05.901Z,14.13
2018-12-31T12:06:33.843Z,14.55
2018-12-31T12:09:02.009Z,14.30
2018-12-31T12:11:29.971Z,14.78
2018-12-31T12:13:57.978Z,14.80
2018-12-31T12:16:25.991Z,15.07
2018-12-31T12:18:54.003Z,15.18
2018-12-31T12:21:22.732Z,13.75
2018-12-31T12:23:50.770Z,14.10
2018-12-31T12:26:19.057Z,13.90
2018-12-31T12:28:47.046Z,14.10
2018-12-31T12:31:15.819Z,13.60
2018-12-31T12:33:44.098Z,13.60
2018-12-31T12:36:13.188Z,12.60
2018-12-31T12:38:41.883Z,12.35
2018-12-31T12:41:09.830Z,12.75
2018-12-31T12:43:37.848Z,12.05
2018-12-31T12:46:05.850Z,12.10
2018-12-31T12:48:33.862Z,12.23
2018-12-31T12:51:01.868Z,11.70
2018-12-31T12:53:30.194Z,13.40
2018-12-31T12:56:00.332Z,12.30
2018-12-31T12:58:28.308Z,12.25
2018-12-31T13:00:56.290Z,11.50
2018-12-31T13:03:24.839Z,10.95
2018-12-31T13:05:53.141Z,12.05
2018-12-31T13:08:21.120Z,11.12
2018-12-31T13:10:49.336Z,12.63
2018-12-31T13:13:17.624Z,12.45
2018-12-31T13:15:45.604Z,12.60
2018-12-31T13:18:13.568Z,13.37
2018-12-31T13:20:41.871Z,13.07
2018-12-31T13:23:09.873Z,13.25
2018-12-31T13:25:38.418Z,13.75
2018-12-31T13:28:08.251Z,13.72
2018-12-31T13:30:36.507Z,13.95
2018-12-31T13:33:04.454Z,15.03
2018-12-31T13:35:32.522Z,15.32
2018-12-31T13:38:00.500Z,15.63
2018-12-31T13:40:28.831Z,16.90
2018-12-31T13:42:56.797Z,17.07
2018-12-31T13:45:25.131Z,17.70
2018-12-31T13:47:53.408Z,16.95
2018-12-31T13:50:21.689Z,18.57
2018-12-31T13:52:51.719Z,19.32
2018-12-31T13:55:20.000Z,19.40
2018-12-31T13:57:48.256Z,18.77
2018-12-31T14:00:16.260Z,18.67
2018-12-31T14:02:44.240Z,19.60
2018-12-31T14:05:12.590Z,20.65
2018-12-31T14:07:41.179Z,20.02
2018-12-31T14:10:09.438Z,21.90
2018-12-31T14:12:37.751Z,20.40
2018-12-31T14:15:05.749Z,21.90
2018-12-31T14:17:34.378Z,23.67
2018-12-31T14:20:02.349Z,21.00
2018-12-31T14:22:30.628Z,21.02
2018-12-31T14:24:58.911Z,21.00
2018-12-31T14:27:27.463Z,21.20
2018-12-31T14:29:55.706Z,21.50
2018-12-31T14:32:24.027Z,21.12
2018-12-31T14:34:52.846Z,21.70
2018-12-31T14:37:20.819Z,21.52
2018-12-31T14:39:49.077Z,21.52
2018-12-31T14:42:17.358Z,22.22
2018-12-31T14:44:45.602Z,22.73
2018-12-31T14:47:18.268Z,22.10
2018-12-31T14:49:43.269Z,22.90
2018-12-31T14:52:11.539Z,21.97
2018-12-31T14:54:39.542Z,21.57
2018-12-31T14:57:08.150Z,22.22
2018-12-31T14:59:36.099Z,23.10
2018-12-31T15:02:04.499Z,37.40
2018-12-31T15:04:32.775Z,24.63
2018-12-31T15:07:01.358Z,24.23
2018-12-31T15:09:30.151Z,25.20
2018-12-31T15:11:58.423Z,25.68
2018-12-31T15:14:27.106Z,25.52
2018-12-31T15:16:55.115Z,27.05
2018-12-31T15:19:23.974Z,25.20
2018-12-31T15:21:52.459Z,25.35
2018-12-31T15:24:20.796Z,25.70
2018-12-31T15:26:48.777Z,25.60
2018-12-31T15:29:16.738Z,27.17
2018-12-31T15:31:45.074Z,26.60
2018-12-31T15:34:13.110Z,28.15
2018-12-31T15:36:42.518Z,26.80
2018-12-31T15:39:10.506Z,28.38
2018-12-31T15:41:38.493Z,28.75
2018-12-31T15:44:06.481Z,27.77
2018-12-31T15:46:34.483Z,28.77
2018-12-31T15:49:02.710Z,28.67
2018-12-31T15:51:30.660Z,26.85
2018-12-31T15:53:58.665Z,27.13
2018-12-31T15:56:27.557Z,28.07
2018-12-31T15:58:56.055Z,29.33
2018-12-31T16:01:24.387Z,28.35
2018-12-31T16:03:53.058Z,27.70
2018-12-31T16:06:21.642Z,26.10
2018-12-31T16:08:49.919Z,24.40
2018-12-31T16:11:18.203Z,23.57
2018-12-31T16:13:46.174Z,22.93
2018-12-31T16:16:14.170Z,23.27
2018-12-31T16:18:42.154Z,22.70
2018-12-31T16:21:10.463Z,24.20
2018-12-31T16:23:38.751Z,23.27
2018-12-31T16:26:07.040Z,20.92
2018-12-31T16:28:35.390Z,20.60
2018-12-31T16:31:03.681Z,20.20
2018-12-31T16:33:31.616Z,20.13
2018-12-31T16:35:59.616Z,17.17
2018-12-31T16:38:27.930Z,17.02
2018-12-31T16:40:56.306Z,17.45
2018-12-31T16:43:24.870Z,18.02
2018-12-31T16:45:53.147Z,19.00
2018-12-31T16:48:21.734Z,20.37
2018-12-31T16:50:49.710Z,20.40
2018-12-31T16:53:17.703Z,20.60
2018-12-31T16:55:45.948Z,20.00
2018-12-31T16:58:14.583Z,22.05
2018-12-31T17:00:42.582Z,23.60
2018-12-31T17:03:10.978Z,23.20
2018-12-31T17:05:39.261Z,22.40
2018-12-31T17:08:07.818Z,22.02
2018-12-31T17:10:36.126Z,22.63
2018-12-31T17:13:04.077Z,22.58
2018-12-31T17:15:32.102Z,23.00
2018-12-31T17:18:00.085Z,25.00
2018-12-31T17:20:28.080Z,26.50
2018-12-31T17:22:56.340Z,26.20
2018-12-31T17:25:24.965Z,26.60
2018-12-31T17:27:52.930Z,27.73
2018-12-31T17:30:21.214Z,26.42
2018-12-31T17:32:49.232Z,25.35
2018-12-31T17:35:17.627Z,24.20
2018-12-31T17:37:45.640Z,23.90
2018-12-31T17:40:13.566Z,21.93
2018-12-31T17:42:41.602Z,21.70
2018-12-31T17:45:09.950Z,20.68
2018-12-31T17:47:38.665Z,21.40
2018-12-31T17:50:07.430Z,21.90
2018-12-31T17:52:35.679Z,20.50
2018-12-31T17:55:03.649Z,33.30
2018-12-31T17:57:31.663Z,21.30
2018-12-31T17:59:59.650Z,19.67
2018-12-31T18:02:28.299Z,19.65
2018-12-31T18:04:56.300Z,19.63
2018-12-31T18:07:24.662Z,18.60
2018-12-31T18:09:52.639Z,18.27
2018-12-31T18:12:20.650Z,18.15
2018-12-31T18:14:48.648Z,18.13
2018-12-31T18:17:16.607Z,17.77
2018-12-31T18:19:45.930Z,17.50
2018-12-31T18:22:14.219Z,17.55
2018-12-31T18:24:42.459Z,17.48
2018-12-31T18:27:10.406Z,17.00
2018-12-31T18:29:38.395Z,17.27
2018-12-31T18:32:06.369Z,18.17
2018-12-31T18:34:34.713Z,17.20
2018-12-31T18:37:02.649Z,17.05
2018-12-31T18:39:30.603Z,16.90
2018-12-31T18:41:59.004Z,17.20
2018-12-31T18:44:27.010Z,17.87
2018-12-31T18:46:54.973Z,17.20
2018-12-31T18:49:23.204Z,17.50
2018-12-31T18:51:51.181Z,17.07
2018-12-31T18:54:19.162Z,15.70
2018-12-31T18:56:47.403Z,15.18
2018-12-31T18:59:16.103Z,14.95
2018-12-31T19:01:44.053Z,14.95
2018-12-31T19:04:12.358Z,14.68
2018-12-31T19:06:40.633Z,14.18
2018-12-31T19:09:09.520Z,13.43
2018-12-31T19:11:37.788Z,13.00
2018-12-31T19:14:06.389Z,14.00
2018-12-31T19:16:34.660Z,12.75
2018-12-31T19:19:03.246Z,14.40
2018-12-31T19:21:31.406Z,15.40
2018-12-31T19:23:59.383Z,17.60
2018-12-31T19:26:27.644Z,15.60
2018-12-31T19:28:55.963Z,15.20
2018-12-31T19:31:23.966Z,16.12
2018-12-31T19:33:51.947Z,16.67
2018-12-31T19:36:20.570Z,14.28
2018-12-31T19:38:48.498Z,12.45
2018-12-31T19:41:16.712Z,10.80
2018-12-31T19:43:45.088Z,8.60
2018-12-31T19:46:13.130Z,8.27
2018-12-31T19:48:41.993Z,7.50
2018-12-31T19:51:09.980Z,8.15
2018-12-31T19:53:37.966Z,6.50
2018-12-31T19:56:05.985Z,6.10
2018-12-31T19:58:34.347Z,6.65
2018-12-31T20:01:02.603Z,7.00
2018-12-31T20:03:31.409Z,6.85
2018-12-31T20:05:59.402Z,6.20
2018-12-31T20:08:27.645Z,6.30
2018-12-31T20:10:55.933Z,6.40
2018-12-31T20:13:24.194Z,7.58
2018-12-31T20:15:52.461Z,9.88
2018-12-31T20:18:20.751Z,15.68
2018-12-31T20:20:49.082Z,16.60
2018-12-31T20:23:17.390Z,14.70
2018-12-31T20:25:45.374Z,13.45
2018-12-31T20:28:13.392Z,12.33
2018-12-31T20:30:41.937Z,9.28
2018-12-31T20:33:09.883Z,7.72
2018-12-31T20:35:37.846Z,6.92
2018-12-31T20:38:05.852Z,7.87
2018-12-31T20:40:33.863Z,7.85
2018-12-31T20:43:02.096Z,7.97
2018-12-31T20:45:30.474Z,8.10
2018-12-31T20:48:01.860Z,9.10
2018-12-31T20:50:28.124Z,9.65
2018-12-31T20:52:56.119Z,10.05
2018-12-31T20:55:24.430Z,10.65
2018-12-31T20:57:52.401Z,10.80
2018-12-31T21:00:20.559Z,11.40
2018-12-31T21:02:48.566Z,9.18
2018-12-31T21:05:16.555Z,7.10
2018-12-31T21:07:44.629Z,6.95
2018-12-31T21:10:12.935Z,8.18
2018-12-31T21:12:42.387Z,8.95
2018-12-31T21:15:10.674Z,8.70
2018-12-31T21:17:38.987Z,8.30
2018-12-31T21:20:08.138Z,8.80
2018-12-31T21:22:36.153Z,8.85
2018-12-31T21:25:04.747Z,9.45
2018-12-31T21:27:33.022Z,9.05
2018-12-31T21:30:01.294Z,8.63
2018-12-31T21:32:29.600Z,8.73
2018-12-31T21:34:57.526Z,7.90
2018-12-31T21:37:25.474Z,7.70
2018-12-31T21:39:53.712Z,7.15
2018-12-31T21:42:21.682Z,6.75
2018-12-31T21:44:49.648Z,6.83
2018-12-31T21:47:18.214Z,6.30
2018-12-31T21:49:46.237Z,6.30
2018-12-31T21:52:14.464Z,6.10
2018-12-31T21:54:42.837Z,6.25
2018-12-31T21:57:10.783Z,5.95
2018-12-31T21:59:39.049Z,6.07
2018-12-31T22:02:07.658Z,5.92
2018-12-31T22:04:35.974Z,6.03
2018-12-31T22:07:04.335Z,6.75
2018-12-31T22:09:32.563Z,6.95
2018-12-31T22:12:02.634Z,7.22
2018-12-31T22:14:30.621Z,7.80
2018-12-31T22:16:58.874Z,7.50
2018-12-31T22:19:26.893Z,8.75
2018-12-31T22:21:55.923Z,7.92
2018-12-31T22:24:24.211Z,8.58
2018-12-31T22:26:52.610Z,7.40
2018-12-31T22:29:20.602Z,8.10
2018-12-31T22:31:48.558Z,8.00
2018-12-31T22:34:17.090Z,8.03
2018-12-31T22:36:45.391Z,8.40
2018-12-31T22:39:13.631Z,7.83
2018-12-31T22:41:41.942Z,7.80
2018-12-31T22:44:09.963Z,8.30
2018-12-31T22:46:37.951Z,8.53
2018-12-31T22:49:06.227Z,7.70
2018-12-31T22:51:34.887Z,6.50
2018-12-31T22:54:02.802Z,6.58
2018-12-31T22:56:31.102Z,5.75
2018-12-31T22:59:00.522Z,5.40
2018-12-31T23:01:30.420Z,5.00
2018-12-31T23:03:58.687Z,4.97
2018-12-31T23:06:26.658Z,5.30
2018-12-31T23:08:54.618Z,5.80
2018-12-31T23:11:22.908Z,7.08
2018-12-31T23:13:50.842Z,11.40
2018-12-31T23:16:23.871Z,15.00
2018-12-31T23:18:52.094Z,22.80
2018-12-31T23:21:20.099Z,28.40
2018-12-31T23:23:48.088Z,34.60
2018-12-31T23:26:16.441Z,34.20
2018-12-31T23:28:52.345Z,28.30
2018-12-31T23:31:14.587Z,26.20
2018-12-31T23:33:42.538Z,31.82
2018-12-31T23:36:12.351Z,19.85
2018-12-31T23:38:40.703Z,24.40
2018-12-31T23:41:08.893Z,31.30
2018-12-31T23:43:37.155Z,13.00
2018-12-31T23:46:05.463Z,9.98
2018-12-31T23:48:33.746Z,9.80
2018-12-31T23:51:01.741Z,9.00
2018-12-31T23:53:30.549Z,9.50
2018-12-31T23:55:58.532Z,10.35
2018-12-31T23:58:26.523Z,11.93
